Terminal Aerodrome Forecast
Issued by NWS

Home | Current Version | Previous Version | Text Only | Print | Product List | Glossary On
Versions: 1 2 3 4 5 6 7 8 9 10 11 12
189
FTUS45 KABQ 251733
TAFFMN
TAF
KFMN 251733Z 2518/2618 12008KT P6SM SCT150
     FM251900 24008KT P6SM SCT090 SCT150
     FM260100 08010KT P6SM VCSH BKN090
      TEMPO 2601/2605 VRB15G25KT
     FM260500 09008KT P6SM BKN120
     FM261300 12006KT P6SM SCT150
     FM261700 VRB06KT P6SM FEW090=

USA.gov is the U.S. government's official web portal to all federal, state and local government web resources and services.